sensor_id;sensor_type;location;lat;lon;timestamp;P1;P2;P0
68713;PMS7003;55690;51.566;19.198;2023-02-23T00:01:13;8;4;2
68713;PMS7003;55690;51.566;19.198;2023-02-23T00:05:24;7;7;4
68713;PMS7003;55690;51.566;19.198;2023-02-23T00:09:27;5;4;3
68713;PMS7003;55690;51.566;19.198;2023-02-23T00:13:37;8;4;3
68713;PMS7003;55690;51.566;19.198;2023-02-23T00:17:40;7;4;3
68713;PMS7003;55690;51.566;19.198;2023-02-23T00:21:43;4;4;2
68713;PMS7003;55690;51.566;19.198;2023-02-23T00:25:50;11;4;2
68713;PMS7003;55690;51.566;19.198;2023-02-23T00:29:56;7;2;2
68713;PMS7003;55690;51.566;19.198;2023-02-23T00:34:03;4;3;2
68713;PMS7003;55690;51.566;19.198;2023-02-23T00:38:08;5;3;1
68713;PMS7003;55690;51.566;19.198;2023-02-23T00:42:14;6;4;3
68713;PMS7003;55690;51.566;19.198;2023-02-23T00:46:21;7;7;5
68713;PMS7003;55690;51.566;19.198;2023-02-23T00:50:27;6;2;2
68713;PMS7003;55690;51.566;19.198;2023-02-23T00:54:33;4;4;3
68713;PMS7003;55690;51.566;19.198;2023-02-23T00:58:39;0;0;0
68713;PMS7003;55690;51.566;19.198;2023-02-23T01:02:46;4;4;3
68713;PMS7003;55690;51.566;19.198;2023-02-23T01:06:51;7;2;2
68713;PMS7003;55690;51.566;19.198;2023-02-23T01:10:58;4;3;2
68713;PMS7003;55690;51.566;19.198;2023-02-23T01:15:05;5;3;2
68713;PMS7003;55690;51.566;19.198;2023-02-23T01:19:10;3;3;2
68713;PMS7003;55690;51.566;19.198;2023-02-23T01:23:16;13;6;3
68713;PMS7003;55690;51.566;19.198;2023-02-23T01:27:23;6;4;3
68713;PMS7003;55690;51.566;19.198;2023-02-23T01:31:29;6;3;2
68713;PMS7003;55690;51.566;19.198;2023-02-23T01:35:35;17;5;4
68713;PMS7003;55690;51.566;19.198;2023-02-23T01:39:41;6;5;3
68713;PMS7003;55690;51.566;19.198;2023-02-23T01:48:06;5;4;4
68713;PMS7003;55690;51.566;19.198;2023-02-23T01:52:13;19;5;5
68713;PMS7003;55690;51.566;19.198;2023-02-23T01:56:18;9;5;4
68713;PMS7003;55690;51.566;19.198;2023-02-23T02:00:23;6;4;3
68713;PMS7003;55690;51.566;19.198;2023-02-23T02:04:26;3;1;0
68713;PMS7003;55690;51.566;19.198;2023-02-23T02:08:38;6;5;2
68713;PMS7003;55690;51.566;19.198;2023-02-23T02:12:51;6;5;4
68713;PMS7003;55690;51.566;19.198;2023-02-23T02:17:02;8;1;1
68713;PMS7003;55690;51.566;19.198;2023-02-23T02:29:46;9;8;6
68713;PMS7003;55690;51.566;19.198;2023-02-23T02:42:21;7;7;5
68713;PMS7003;55690;51.566;19.198;2023-02-23T02:46:35;4;4;3
68713;PMS7003;55690;51.566;19.198;2023-02-23T02:55:02;6;6;5
68713;PMS7003;55690;51.566;19.198;2023-02-23T02:59:12;6;3;2
68713;PMS7003;55690;51.566;19.198;2023-02-23T03:07:56;6;6;5
68713;PMS7003;55690;51.566;19.198;2023-02-23T03:12:25;2;2;1
68713;PMS7003;55690;51.566;19.198;2023-02-23T03:21:10;5;5;3
68713;PMS7003;55690;51.566;19.198;2023-02-23T03:29:59;3;3;1
68713;PMS7003;55690;51.566;19.198;2023-02-23T03:34:21;11;3;3
68713;PMS7003;55690;51.566;19.198;2023-02-23T03:38:48;7;7;5
68713;PMS7003;55690;51.566;19.198;2023-02-23T03:43:11;4;1;1
68713;PMS7003;55690;51.566;19.198;2023-02-23T03:47:30;5;3;2
68713;PMS7003;55690;51.566;19.198;2023-02-23T03:51:49;7;6;4
68713;PMS7003;55690;51.566;19.198;2023-02-23T03:56:08;11;4;2
68713;PMS7003;55690;51.566;19.198;2023-02-23T04:00:26;10;7;5
68713;PMS7003;55690;51.566;19.198;2023-02-23T04:04:42;10;5;4
68713;PMS7003;55690;51.566;19.198;2023-02-23T04:09:00;2;2;2
68713;PMS7003;55690;51.566;19.198;2023-02-23T04:13:17;10;6;4
68713;PMS7003;55690;51.566;19.198;2023-02-23T04:17:25;14;5;5
68713;PMS7003;55690;51.566;19.198;2023-02-23T04:21:28;5;2;1
68713;PMS7003;55690;51.566;19.198;2023-02-23T04:25:31;5;4;4
68713;PMS7003;55690;51.566;19.198;2023-02-23T04:29:32;14;7;4
68713;PMS7003;55690;51.566;19.198;2023-02-23T04:33:34;8;7;5
68713;PMS7003;55690;51.566;19.198;2023-02-23T04:37:36;6;5;4
68713;PMS7003;55690;51.566;19.198;2023-02-23T04:41:38;10;5;4
68713;PMS7003;55690;51.566;19.198;2023-02-23T04:45:39;6;4;3
68713;PMS7003;55690;51.566;19.198;2023-02-23T04:49:41;2;2;2
68713;PMS7003;55690;51.566;19.198;2023-02-23T04:53:44;17;9;6
68713;PMS7003;55690;51.566;19.198;2023-02-23T04:57:46;17;7;6
68713;PMS7003;55690;51.566;19.198;2023-02-23T05:01:48;7;5;4
68713;PMS7003;55690;51.566;19.198;2023-02-23T05:05:49;7;7;5
68713;PMS7003;55690;51.566;19.198;2023-02-23T05:09:50;6;6;3
68713;PMS7003;55690;51.566;19.198;2023-02-23T05:13:52;15;6;4
68713;PMS7003;55690;51.566;19.198;2023-02-23T05:17:54;12;7;6
68713;PMS7003;55690;51.566;19.198;2023-02-23T05:21:55;15;8;5
68713;PMS7003;55690;51.566;19.198;2023-02-23T05:26:04;11;7;5
68713;PMS7003;55690;51.566;19.198;2023-02-23T05:30:08;7;7;6
68713;PMS7003;55690;51.566;19.198;2023-02-23T05:34:11;7;5;4
68713;PMS7003;55690;51.566;19.198;2023-02-23T05:38:12;5;5;3
68713;PMS7003;55690;51.566;19.198;2023-02-23T05:42:14;11;6;4
68713;PMS7003;55690;51.566;19.198;2023-02-23T05:46:16;4;4;3
68713;PMS7003;55690;51.566;19.198;2023-02-23T05:50:21;8;8;6
68713;PMS7003;55690;51.566;19.198;2023-02-23T05:54:22;15;5;4
68713;PMS7003;55690;51.566;19.198;2023-02-23T05:58:24;14;7;6
68713;PMS7003;55690;51.566;19.198;2023-02-23T06:02:25;5;4;3
68713;PMS7003;55690;51.566;19.198;2023-02-23T06:06:27;11;8;5
68713;PMS7003;55690;51.566;19.198;2023-02-23T06:10:29;7;6;5
68713;PMS7003;55690;51.566;19.198;2023-02-23T06:14:30;8;7;5
68713;PMS7003;55690;51.566;19.198;2023-02-23T06:18:33;7;7;7
68713;PMS7003;55690;51.566;19.198;2023-02-23T06:22:34;12;9;7
68713;PMS7003;55690;51.566;19.198;2023-02-23T06:26:36;17;8;7
68713;PMS7003;55690;51.566;19.198;2023-02-23T06:30:38;8;5;3
68713;PMS7003;55690;51.566;19.198;2023-02-23T06:34:39;9;6;5
68713;PMS7003;55690;51.566;19.198;2023-02-23T06:38:41;8;6;5
68713;PMS7003;55690;51.566;19.198;2023-02-23T06:42:45;7;7;5
68713;PMS7003;55690;51.566;19.198;2023-02-23T06:49:27;12;9;6
68713;PMS7003;55690;51.566;19.198;2023-02-23T06:53:33;14;8;6
68713;PMS7003;55690;51.566;19.198;2023-02-23T06:57:40;9;9;5
68713;PMS7003;55690;51.566;19.198;2023-02-23T07:01:46;22;11;9
68713;PMS7003;55690;51.566;19.198;2023-02-23T07:05:52;6;5;4
68713;PMS7003;55690;51.566;19.198;2023-02-23T07:09:58;9;6;5
68713;PMS7003;55690;51.566;19.198;2023-02-23T07:14:04;6;6;4
68713;PMS7003;55690;51.566;19.198;2023-02-23T07:18:10;6;4;3
68713;PMS7003;55690;51.566;19.198;2023-02-23T07:22:17;7;7;5
68713;PMS7003;55690;51.566;19.198;2023-02-23T07:26:23;18;10;9
68713;PMS7003;55690;51.566;19.198;2023-02-23T07:30:29;19;10;6
68713;PMS7003;55690;51.566;19.198;2023-02-23T07:34:35;13;8;7
68713;PMS7003;55690;51.566;19.198;2023-02-23T07:38:42;12;9;8
68713;PMS7003;55690;51.566;19.198;2023-02-23T07:42:48;5;5;5
68713;PMS7003;55690;51.566;19.198;2023-02-23T07:46:54;9;7;6
68713;PMS7003;55690;51.566;19.198;2023-02-23T07:51:00;20;7;4
68713;PMS7003;55690;51.566;19.198;2023-02-23T07:55:07;17;4;4
68713;PMS7003;55690;51.566;19.198;2023-02-23T07:59:12;11;5;4
68713;PMS7003;55690;51.566;19.198;2023-02-23T08:03:18;7;5;4
68713;PMS7003;55690;51.566;19.198;2023-02-23T08:07:25;12;7;5
68713;PMS7003;55690;51.566;19.198;2023-02-23T08:11:31;12;9;7
68713;PMS7003;55690;51.566;19.198;2023-02-23T08:15:37;17;11;8
68713;PMS7003;55690;51.566;19.198;2023-02-23T08:19:43;20;12;7
68713;PMS7003;55690;51.566;19.198;2023-02-23T08:23:49;9;5;4
68713;PMS7003;55690;51.566;19.198;2023-02-23T08:27:56;2;2;1
68713;PMS7003;55690;51.566;19.198;2023-02-23T08:32:04;6;6;5
68713;PMS7003;55690;51.566;19.198;2023-02-23T08:36:08;7;5;5
68713;PMS7003;55690;51.566;19.198;2023-02-23T08:40:14;12;5;5
68713;PMS7003;55690;51.566;19.198;2023-02-23T08:44:20;10;8;5
68713;PMS7003;55690;51.566;19.198;2023-02-23T08:48:27;7;4;4
68713;PMS7003;55690;51.566;19.198;2023-02-23T08:52:33;23;10;8
68713;PMS7003;55690;51.566;19.198;2023-02-23T08:56:39;5;5;4
68713;PMS7003;55690;51.566;19.198;2023-02-23T09:00:45;16;6;5
68713;PMS7003;55690;51.566;19.198;2023-02-23T09:04:51;18;7;7
68713;PMS7003;55690;51.566;19.198;2023-02-23T09:08:57;8;8;6
68713;PMS7003;55690;51.566;19.198;2023-02-23T09:13:04;24;5;2
68713;PMS7003;55690;51.566;19.198;2023-02-23T09:17:10;8;7;5
68713;PMS7003;55690;51.566;19.198;2023-02-23T09:21:17;17;5;4
68713;PMS7003;55690;51.566;19.198;2023-02-23T09:25:26;11;9;7
68713;PMS7003;55690;51.566;19.198;2023-02-23T09:29:30;9;5;3
68713;PMS7003;55690;51.566;19.198;2023-02-23T09:33:35;10;9;7
68713;PMS7003;55690;51.566;19.198;2023-02-23T09:37:41;6;6;2
68713;PMS7003;55690;51.566;19.198;2023-02-23T09:50:20;16;7;6
68713;PMS7003;55690;51.566;19.198;2023-02-23T09:54:28;11;10;6
68713;PMS7003;55690;51.566;19.198;2023-02-23T09:58:32;14;10;7
68713;PMS7003;55690;51.566;19.198;2023-02-23T10:02:36;10;7;5
68713;PMS7003;55690;51.566;19.198;2023-02-23T10:06:44;10;8;7
68713;PMS7003;55690;51.566;19.198;2023-02-23T10:10:53;10;9;7
68713;PMS7003;55690;51.566;19.198;2023-02-23T10:27:48;8;5;4
68713;PMS7003;55690;51.566;19.198;2023-02-23T10:31:51;17;11;9
68713;PMS7003;55690;51.566;19.198;2023-02-23T10:35:58;7;7;5
68713;PMS7003;55690;51.566;19.198;2023-02-23T10:40:06;8;8;7
68713;PMS7003;55690;51.566;19.198;2023-02-23T10:44:23;17;12;9
68713;PMS7003;55690;51.566;19.198;2023-02-23T10:48:33;11;9;7
68713;PMS7003;55690;51.566;19.198;2023-02-23T10:52:44;17;11;8
68713;PMS7003;55690;51.566;19.198;2023-02-23T10:56:47;19;7;5
68713;PMS7003;55690;51.566;19.198;2023-02-23T11:00:54;7;6;5
68713;PMS7003;55690;51.566;19.198;2023-02-23T11:05:01;18;8;6
68713;PMS7003;55690;51.566;19.198;2023-02-23T11:13:21;14;7;6
68713;PMS7003;55690;51.566;19.198;2023-02-23T11:17:30;14;12;10
68713;PMS7003;55690;51.566;19.198;2023-02-23T11:21:37;14;7;6
68713;PMS7003;55690;51.566;19.198;2023-02-23T11:25:41;10;9;6
68713;PMS7003;55690;51.566;19.198;2023-02-23T11:29:44;23;13;9
68713;PMS7003;55690;51.566;19.198;2023-02-23T11:33:48;20;10;8
68713;PMS7003;55690;51.566;19.198;2023-02-23T11:37:51;9;6;5
68713;PMS7003;55690;51.566;19.198;2023-02-23T11:46:06;9;6;4
68713;PMS7003;55690;51.566;19.198;2023-02-23T11:50:18;13;12;9
68713;PMS7003;55690;51.566;19.198;2023-02-23T11:54:28;10;7;7
68713;PMS7003;55690;51.566;19.198;2023-02-23T12:19:36;14;10;7
68713;PMS7003;55690;51.566;19.198;2023-02-23T12:23:45;11;10;9
68713;PMS7003;55690;51.566;19.198;2023-02-23T12:27:51;14;8;5
68713;PMS7003;55690;51.566;19.198;2023-02-23T12:32:01;17;7;6
68713;PMS7003;55690;51.566;19.198;2023-02-23T12:36:13;10;9;8
68713;PMS7003;55690;51.566;19.198;2023-02-23T12:40:24;12;7;6
68713;PMS7003;55690;51.566;19.198;2023-02-23T12:52:53;13;6;4
68713;PMS7003;55690;51.566;19.198;2023-02-23T13:05:30;12;10;7
68713;PMS7003;55690;51.566;19.198;2023-02-23T13:18:25;15;11;7
68713;PMS7003;55690;51.566;19.198;2023-02-23T13:22:27;13;10;7
68713;PMS7003;55690;51.566;19.198;2023-02-23T13:30:46;12;12;7
68713;PMS7003;55690;51.566;19.198;2023-02-23T13:34:52;12;11;7
68713;PMS7003;55690;51.566;19.198;2023-02-23T13:51:37;18;14;9
68713;PMS7003;55690;51.566;19.198;2023-02-23T13:55:47;14;12;7
68713;PMS7003;55690;51.566;19.198;2023-02-23T13:59:52;13;8;6
68713;PMS7003;55690;51.566;19.198;2023-02-23T14:03:55;21;12;8
68713;PMS7003;55690;51.566;19.198;2023-02-23T14:07:59;18;10;6
68713;PMS7003;55690;51.566;19.198;2023-02-23T14:12:13;18;6;6
68713;PMS7003;55690;51.566;19.198;2023-02-23T14:16:21;17;13;9
68713;PMS7003;55690;51.566;19.198;2023-02-23T14:24:36;11;5;4
68713;PMS7003;55690;51.566;19.198;2023-02-23T14:28:39;10;7;6
68713;PMS7003;55690;51.566;19.198;2023-02-23T14:32:46;15;9;6
68713;PMS7003;55690;51.566;19.198;2023-02-23T14:36:49;21;11;9
68713;PMS7003;55690;51.566;19.198;2023-02-23T14:40:55;13;13;9
68713;PMS7003;55690;51.566;19.198;2023-02-23T14:45:03;30;20;13
68713;PMS7003;55690;51.566;19.198;2023-02-23T14:49:14;12;12;7
68713;PMS7003;55690;51.566;19.198;2023-02-23T14:53:21;22;8;6
68713;PMS7003;55690;51.566;19.198;2023-02-23T14:57:25;17;10;7
68713;PMS7003;55690;51.566;19.198;2023-02-23T15:09:50;9;6;4
68713;PMS7003;55690;51.566;19.198;2023-02-23T15:13:53;4;4;4
68713;PMS7003;55690;51.566;19.198;2023-02-23T15:17:57;10;10;7
68713;PMS7003;55690;51.566;19.198;2023-02-23T15:22:03;23;13;9
68713;PMS7003;55690;51.566;19.198;2023-02-23T15:30:25;12;10;7
68713;PMS7003;55690;51.566;19.198;2023-02-23T15:40:09;32;30;21
68713;PMS7003;55690;51.566;19.198;2023-02-23T15:52:46;13;10;8
68713;PMS7003;55690;51.566;19.198;2023-02-23T15:56:56;13;11;8
68713;PMS7003;55690;51.566;19.198;2023-02-23T16:01:07;28;17;11
68713;PMS7003;55690;51.566;19.198;2023-02-23T16:09:24;28;15;11
68713;PMS7003;55690;51.566;19.198;2023-02-23T16:13:28;12;12;9
68713;PMS7003;55690;51.566;19.198;2023-02-23T16:17:36;10;10;7
68713;PMS7003;55690;51.566;19.198;2023-02-23T16:25:58;20;14;8
68713;PMS7003;55690;51.566;19.198;2023-02-23T16:38:38;17;11;7
68713;PMS7003;55690;51.566;19.198;2023-02-23T16:42:45;10;10;7
68713;PMS7003;55690;51.566;19.198;2023-02-23T16:51:02;8;7;4
68713;PMS7003;55690;51.566;19.198;2023-02-23T16:55:08;18;13;8
68713;PMS7003;55690;51.566;19.198;2023-02-23T16:59:17;29;19;12
68713;PMS7003;55690;51.566;19.198;2023-02-23T17:03:24;30;20;15
68713;PMS7003;55690;51.566;19.198;2023-02-23T17:07:29;18;13;11
68713;PMS7003;55690;51.566;19.198;2023-02-23T17:11:31;17;14;11
68713;PMS7003;55690;51.566;19.198;2023-02-23T17:15:34;14;13;10
68713;PMS7003;55690;51.566;19.198;2023-02-23T17:19:37;19;18;11
68713;PMS7003;55690;51.566;19.198;2023-02-23T17:23:39;15;11;8
68713;PMS7003;55690;51.566;19.198;2023-02-23T17:27:51;17;9;8
68713;PMS7003;55690;51.566;19.198;2023-02-23T17:31:57;25;16;11
68713;PMS7003;55690;51.566;19.198;2023-02-23T17:36:06;14;10;8
68713;PMS7003;55690;51.566;19.198;2023-02-23T17:40:10;17;12;8
68713;PMS7003;55690;51.566;19.198;2023-02-23T17:44:15;19;15;12
68713;PMS7003;55690;51.566;19.198;2023-02-23T17:48:16;15;12;10
68713;PMS7003;55690;51.566;19.198;2023-02-23T17:52:18;20;16;11
68713;PMS7003;55690;51.566;19.198;2023-02-23T17:56:20;11;9;5
68713;PMS7003;55690;51.566;19.198;2023-02-23T18:00:23;24;15;11
68713;PMS7003;55690;51.566;19.198;2023-02-23T18:04:28;28;18;13
68713;PMS7003;55690;51.566;19.198;2023-02-23T18:08:29;13;10;9
68713;PMS7003;55690;51.566;19.198;2023-02-23T18:12:32;20;13;11
68713;PMS7003;55690;51.566;19.198;2023-02-23T18:16:34;11;7;5
68713;PMS7003;55690;51.566;19.198;2023-02-23T18:20:35;23;14;8
68713;PMS7003;55690;51.566;19.198;2023-02-23T18:24:37;16;16;9
68713;PMS7003;55690;51.566;19.198;2023-02-23T18:28:38;28;20;13
68713;PMS7003;55690;51.566;19.198;2023-02-23T18:32:45;25;20;14
68713;PMS7003;55690;51.566;19.198;2023-02-23T18:36:48;30;16;13
68713;PMS7003;55690;51.566;19.198;2023-02-23T18:40:50;26;17;11
68713;PMS7003;55690;51.566;19.198;2023-02-23T18:44:51;17;5;2
68713;PMS7003;55690;51.566;19.198;2023-02-23T18:48:53;16;16;13
68713;PMS7003;55690;51.566;19.198;2023-02-23T18:52:56;19;13;11
68713;PMS7003;55690;51.566;19.198;2023-02-23T18:57:03;32;21;12
68713;PMS7003;55690;51.566;19.198;2023-02-23T19:01:12;12;12;8
68713;PMS7003;55690;51.566;19.198;2023-02-23T19:05:20;26;15;12
68713;PMS7003;55690;51.566;19.198;2023-02-23T19:09:21;30;16;11
68713;PMS7003;55690;51.566;19.198;2023-02-23T19:13:24;31;13;9
68713;PMS7003;55690;51.566;19.198;2023-02-23T19:17:30;22;16;10
68713;PMS7003;55690;51.566;19.198;2023-02-23T19:21:37;12;11;9
68713;PMS7003;55690;51.566;19.198;2023-02-23T19:25:45;22;17;13
68713;PMS7003;55690;51.566;19.198;2023-02-23T19:29:49;29;21;13
68713;PMS7003;55690;51.566;19.198;2023-02-23T19:33:55;15;12;9
68713;PMS7003;55690;51.566;19.198;2023-02-23T19:38:01;23;22;14
68713;PMS7003;55690;51.566;19.198;2023-02-23T19:42:08;33;16;8
68713;PMS7003;55690;51.566;19.198;2023-02-23T19:46:14;14;13;10
68713;PMS7003;55690;51.566;19.198;2023-02-23T19:50:20;18;17;13
68713;PMS7003;55690;51.566;19.198;2023-02-23T19:54:26;30;17;11
68713;PMS7003;55690;51.566;19.198;2023-02-23T19:58:33;22;21;13
68713;PMS7003;55690;51.566;19.198;2023-02-23T20:02:39;18;15;10
68713;PMS7003;55690;51.566;19.198;2023-02-23T20:06:45;26;20;14
68713;PMS7003;55690;51.566;19.198;2023-02-23T20:10:51;15;15;8
68713;PMS7003;55690;51.566;19.198;2023-02-23T20:14:57;18;13;8
68713;PMS7003;55690;51.566;19.198;2023-02-23T20:19:03;27;24;16
68713;PMS7003;55690;51.566;19.198;2023-02-23T20:23:09;21;19;12
68713;PMS7003;55690;51.566;19.198;2023-02-23T20:27:15;26;23;18
68713;PMS7003;55690;51.566;19.198;2023-02-23T20:31:23;31;22;14
68713;PMS7003;55690;51.566;19.198;2023-02-23T20:35:30;27;23;14
68713;PMS7003;55690;51.566;19.198;2023-02-23T20:39:34;25;20;17
68713;PMS7003;55690;51.566;19.198;2023-02-23T20:43:40;35;24;15
68713;PMS7003;55690;51.566;19.198;2023-02-23T20:47:46;45;27;20
68713;PMS7003;55690;51.566;19.198;2023-02-23T20:51:53;25;22;15
68713;PMS7003;55690;51.566;19.198;2023-02-23T20:56:02;33;27;18
68713;PMS7003;55690;51.566;19.198;2023-02-23T21:00:06;20;18;13
68713;PMS7003;55690;51.566;19.198;2023-02-23T21:04:12;17;15;12
68713;PMS7003;55690;51.566;19.198;2023-02-23T21:08:17;35;24;16
68713;PMS7003;55690;51.566;19.198;2023-02-23T21:12:23;25;19;14
68713;PMS7003;55690;51.566;19.198;2023-02-23T21:16:30;31;18;12
68713;PMS7003;55690;51.566;19.198;2023-02-23T21:20:39;26;18;11
68713;PMS7003;55690;51.566;19.198;2023-02-23T21:24:42;15;15;10
68713;PMS7003;55690;51.566;19.198;2023-02-23T21:28:48;48;23;17
68713;PMS7003;55690;51.566;19.198;2023-02-23T21:32:56;20;16;13
68713;PMS7003;55690;51.566;19.198;2023-02-23T21:37:03;45;23;13
68713;PMS7003;55690;51.566;19.198;2023-02-23T21:41:07;29;23;13
68713;PMS7003;55690;51.566;19.198;2023-02-23T21:45:14;39;21;12
68713;PMS7003;55690;51.566;19.198;2023-02-23T21:49:19;25;18;14
68713;PMS7003;55690;51.566;19.198;2023-02-23T21:53:25;34;22;14
68713;PMS7003;55690;51.566;19.198;2023-02-23T21:57:31;45;28;18
68713;PMS7003;55690;51.566;19.198;2023-02-23T22:01:38;29;23;14
68713;PMS7003;55690;51.566;19.198;2023-02-23T22:05:44;29;22;14
68713;PMS7003;55690;51.566;19.198;2023-02-23T22:09:50;34;27;17
68713;PMS7003;55690;51.566;19.198;2023-02-23T22:13:58;40;26;16
68713;PMS7003;55690;51.566;19.198;2023-02-23T22:18:03;32;13;6
68713;PMS7003;55690;51.566;19.198;2023-02-23T22:22:09;42;27;19
68713;PMS7003;55690;51.566;19.198;2023-02-23T22:26:16;26;20;12
68713;PMS7003;55690;51.566;19.198;2023-02-23T22:30:22;33;20;14
68713;PMS7003;55690;51.566;19.198;2023-02-23T22:34:28;33;20;15
68713;PMS7003;55690;51.566;19.198;2023-02-23T22:38:34;23;22;17
68713;PMS7003;55690;51.566;19.198;2023-02-23T22:42:42;44;34;21
68713;PMS7003;55690;51.566;19.198;2023-02-23T22:46:48;37;25;17
68713;PMS7003;55690;51.566;19.198;2023-02-23T22:50:56;35;23;15
68713;PMS7003;55690;51.566;19.198;2023-02-23T22:54:59;36;23;14
68713;PMS7003;55690;51.566;19.198;2023-02-23T22:59:05;22;19;11
68713;PMS7003;55690;51.566;19.198;2023-02-23T23:03:11;41;26;18
68713;PMS7003;55690;51.566;19.198;2023-02-23T23:07:17;20;18;14
68713;PMS7003;55690;51.566;19.198;2023-02-23T23:11:24;29;24;18
68713;PMS7003;55690;51.566;19.198;2023-02-23T23:15:30;32;23;7
68713;PMS7003;55690;51.566;19.198;2023-02-23T23:19:36;33;24;17
68713;PMS7003;55690;51.566;19.198;2023-02-23T23:23:43;25;19;12
68713;PMS7003;55690;51.566;19.198;2023-02-23T23:27:49;33;18;11
68713;PMS7003;55690;51.566;19.198;2023-02-23T23:31:55;29;21;16
68713;PMS7003;55690;51.566;19.198;2023-02-23T23:36:04;37;22;15
68713;PMS7003;55690;51.566;19.198;2023-02-23T23:40:08;25;18;6
68713;PMS7003;55690;51.566;19.198;2023-02-23T23:44:18;35;26;15
68713;PMS7003;55690;51.566;19.198;2023-02-23T23:48:21;23;18;12
68713;PMS7003;55690;51.566;19.198;2023-02-23T23:52:26;27;26;16
68713;PMS7003;55690;51.566;19.198;2023-02-23T23:56:35;26;18;11
